sensor_id;sensor_type;location;lat;lon;timestamp;P1;durP1;ratioP1;P2;durP2;ratioP2
32593;SDS011;19018;49.046;9.140;2023-01-16T00:01:22;1.88;;;0.65;;
32593;SDS011;19018;49.046;9.140;2023-01-16T00:03:49;1.52;;;1.15;;
32593;SDS011;19018;49.046;9.140;2023-01-16T00:06:15;2.70;;;1.90;;
32593;SDS011;19018;49.046;9.140;2023-01-16T00:08:42;4.25;;;2.55;;
32593;SDS011;19018;49.046;9.140;2023-01-16T00:11:08;4.60;;;2.40;;
32593;SDS011;19018;49.046;9.140;2023-01-16T00:13:34;5.25;;;3.70;;
32593;SDS011;19018;49.046;9.140;2023-01-16T00:16:00;4.57;;;3.42;;
32593;SDS011;19018;49.046;9.140;2023-01-16T00:18:26;6.80;;;3.42;;
32593;SDS011;19018;49.046;9.140;2023-01-16T00:20:52;4.75;;;3.35;;
32593;SDS011;19018;49.046;9.140;2023-01-16T00:23:18;3.33;;;2.20;;
32593;SDS011;19018;49.046;9.140;2023-01-16T00:25:44;1.35;;;1.15;;
32593;SDS011;19018;49.046;9.140;2023-01-16T00:28:10;2.03;;;0.80;;
32593;SDS011;19018;49.046;9.140;2023-01-16T00:30:38;0.55;;;0.45;;
32593;SDS011;19018;49.046;9.140;2023-01-16T00:33:04;0.85;;;0.75;;
32593;SDS011;19018;49.046;9.140;2023-01-16T00:35:31;0.60;;;0.50;;
32593;SDS011;19018;49.046;9.140;2023-01-16T00:37:57;2.35;;;0.88;;
32593;SDS011;19018;49.046;9.140;2023-01-16T00:40:23;1.40;;;1.00;;
32593;SDS011;19018;49.046;9.140;2023-01-16T00:42:49;1.17;;;1.08;;
32593;SDS011;19018;49.046;9.140;2023-01-16T00:45:15;0.52;;;0.40;;
32593;SDS011;19018;49.046;9.140;2023-01-16T00:47:41;5.05;;;1.48;;
32593;SDS011;19018;49.046;9.140;2023-01-16T00:50:08;2.40;;;0.50;;
32593;SDS011;19018;49.046;9.140;2023-01-16T00:52:34;0.88;;;0.38;;
32593;SDS011;19018;49.046;9.140;2023-01-16T00:55:00;0.82;;;0.80;;
32593;SDS011;19018;49.046;9.140;2023-01-16T00:57:26;1.23;;;0.30;;
32593;SDS011;19018;49.046;9.140;2023-01-16T00:59:52;0.65;;;0.40;;
32593;SDS011;19018;49.046;9.140;2023-01-16T01:02:18;1.42;;;0.40;;
32593;SDS011;19018;49.046;9.140;2023-01-16T01:04:44;1.95;;;0.73;;
32593;SDS011;19018;49.046;9.140;2023-01-16T01:07:10;2.28;;;0.77;;
32593;SDS011;19018;49.046;9.140;2023-01-16T01:09:37;2.53;;;0.77;;
32593;SDS011;19018;49.046;9.140;2023-01-16T01:12:02;2.13;;;0.50;;
32593;SDS011;19018;49.046;9.140;2023-01-16T01:14:28;0.43;;;0.40;;
32593;SDS011;19018;49.046;9.140;2023-01-16T01:16:54;0.73;;;0.40;;
32593;SDS011;19018;49.046;9.140;2023-01-16T01:19:20;1.10;;;0.40;;
32593;SDS011;19018;49.046;9.140;2023-01-16T01:21:47;0.95;;;0.40;;
32593;SDS011;19018;49.046;9.140;2023-01-16T01:24:13;0.55;;;0.30;;
32593;SDS011;19018;49.046;9.140;2023-01-16T01:26:39;1.33;;;0.43;;
32593;SDS011;19018;49.046;9.140;2023-01-16T01:29:05;0.47;;;0.38;;
32593;SDS011;19018;49.046;9.140;2023-01-16T01:31:31;1.08;;;0.43;;
32593;SDS011;19018;49.046;9.140;2023-01-16T01:33:57;0.90;;;0.60;;
32593;SDS011;19018;49.046;9.140;2023-01-16T01:36:23;0.82;;;0.60;;
32593;SDS011;19018;49.046;9.140;2023-01-16T01:38:49;0.93;;;0.77;;
32593;SDS011;19018;49.046;9.140;2023-01-16T01:41:16;0.45;;;0.25;;
32593;SDS011;19018;49.046;9.140;2023-01-16T01:43:43;1.05;;;0.47;;
32593;SDS011;19018;49.046;9.140;2023-01-16T01:46:22;0.88;;;0.25;;
32593;SDS011;19018;49.046;9.140;2023-01-16T01:48:53;0.95;;;0.88;;
32593;SDS011;19018;49.046;9.140;2023-01-16T01:51:50;0.80;;;0.45;;
32593;SDS011;19018;49.046;9.140;2023-01-16T01:54:20;1.27;;;1.02;;
32593;SDS011;19018;49.046;9.140;2023-01-16T01:56:50;0.70;;;0.50;;
32593;SDS011;19018;49.046;9.140;2023-01-16T01:59:20;3.40;;;1.45;;
32593;SDS011;19018;49.046;9.140;2023-01-16T02:01:51;1.50;;;0.50;;
32593;SDS011;19018;49.046;9.140;2023-01-16T02:04:19;0.65;;;0.30;;
32593;SDS011;19018;49.046;9.140;2023-01-16T02:06:56;0.47;;;0.30;;
32593;SDS011;19018;49.046;9.140;2023-01-16T02:09:25;0.30;;;0.20;;
32593;SDS011;19018;49.046;9.140;2023-01-16T02:11:53;0.60;;;0.60;;
32593;SDS011;19018;49.046;9.140;2023-01-16T02:14:26;0.20;;;0.20;;
32593;SDS011;19018;49.046;9.140;2023-01-16T02:16:59;1.08;;;0.50;;
32593;SDS011;19018;49.046;9.140;2023-01-16T02:35:34;0.77;;;0.40;;
32593;SDS011;19018;49.046;9.140;2023-01-16T02:38:10;0.80;;;0.32;;
32593;SDS011;19018;49.046;9.140;2023-01-16T02:40:50;0.55;;;0.30;;
32593;SDS011;19018;49.046;9.140;2023-01-16T02:43:33;1.13;;;0.28;;
32593;SDS011;19018;49.046;9.140;2023-01-16T02:48:47;1.83;;;0.52;;
32593;SDS011;19018;49.046;9.140;2023-01-16T02:57:03;0.32;;;0.28;;
32593;SDS011;19018;49.046;9.140;2023-01-16T02:59:33;4.05;;;0.60;;
32593;SDS011;19018;49.046;9.140;2023-01-16T03:02:00;0.38;;;0.20;;
32593;SDS011;19018;49.046;9.140;2023-01-16T03:10:18;0.80;;;0.50;;
32593;SDS011;19018;49.046;9.140;2023-01-16T03:15:39;0.70;;;0.20;;
32593;SDS011;19018;49.046;9.140;2023-01-16T03:21:08;0.38;;;0.30;;
32593;SDS011;19018;49.046;9.140;2023-01-16T03:23:52;1.05;;;0.25;;
32593;SDS011;19018;49.046;9.140;2023-01-16T03:26:23;1.00;;;0.40;;
32593;SDS011;19018;49.046;9.140;2023-01-16T03:31:41;0.60;;;0.52;;
32593;SDS011;19018;49.046;9.140;2023-01-16T03:37:01;2.63;;;1.00;;
32593;SDS011;19018;49.046;9.140;2023-01-16T03:39:45;0.93;;;0.43;;
32593;SDS011;19018;49.046;9.140;2023-01-16T03:42:22;0.60;;;0.40;;
32593;SDS011;19018;49.046;9.140;2023-01-16T03:44:55;0.30;;;0.30;;
32593;SDS011;19018;49.046;9.140;2023-01-16T03:47:28;0.30;;;0.23;;
32593;SDS011;19018;49.046;9.140;2023-01-16T03:52:30;0.60;;;0.50;;
32593;SDS011;19018;49.046;9.140;2023-01-16T03:57:36;0.82;;;0.38;;
32593;SDS011;19018;49.046;9.140;2023-01-16T04:00:05;0.30;;;0.30;;
32593;SDS011;19018;49.046;9.140;2023-01-16T04:05:00;0.75;;;0.40;;
32593;SDS011;19018;49.046;9.140;2023-01-16T04:10:13;0.13;;;0.13;;
32593;SDS011;19018;49.046;9.140;2023-01-16T04:12:43;0.43;;;0.43;;
32593;SDS011;19018;49.046;9.140;2023-01-16T04:15:14;0.63;;;0.30;;
32593;SDS011;19018;49.046;9.140;2023-01-16T04:17:42;0.63;;;0.35;;
32593;SDS011;19018;49.046;9.140;2023-01-16T04:20:08;0.65;;;0.38;;
32593;SDS011;19018;49.046;9.140;2023-01-16T04:22:35;0.30;;;0.20;;
32593;SDS011;19018;49.046;9.140;2023-01-16T04:25:02;0.28;;;0.28;;
32593;SDS011;19018;49.046;9.140;2023-01-16T04:27:33;0.25;;;0.25;;
32593;SDS011;19018;49.046;9.140;2023-01-16T04:29:59;1.85;;;0.50;;
32593;SDS011;19018;49.046;9.140;2023-01-16T04:32:26;0.80;;;0.30;;
32593;SDS011;19018;49.046;9.140;2023-01-16T04:34:52;0.88;;;0.52;;
32593;SDS011;19018;49.046;9.140;2023-01-16T04:37:18;0.43;;;0.30;;
32593;SDS011;19018;49.046;9.140;2023-01-16T04:39:44;1.15;;;0.30;;
32593;SDS011;19018;49.046;9.140;2023-01-16T04:42:12;0.38;;;0.20;;
32593;SDS011;19018;49.046;9.140;2023-01-16T04:44:38;0.68;;;0.40;;
32593;SDS011;19018;49.046;9.140;2023-01-16T04:47:04;2.53;;;0.88;;
32593;SDS011;19018;49.046;9.140;2023-01-16T04:49:30;0.40;;;0.40;;
32593;SDS011;19018;49.046;9.140;2023-01-16T04:51:56;0.70;;;0.40;;
32593;SDS011;19018;49.046;9.140;2023-01-16T04:54:22;0.20;;;0.20;;
32593;SDS011;19018;49.046;9.140;2023-01-16T04:56:49;0.50;;;0.40;;
32593;SDS011;19018;49.046;9.140;2023-01-16T04:59:14;0.88;;;0.50;;
32593;SDS011;19018;49.046;9.140;2023-01-16T05:01:43;1.00;;;0.50;;
32593;SDS011;19018;49.046;9.140;2023-01-16T05:04:10;1.50;;;0.50;;
32593;SDS011;19018;49.046;9.140;2023-01-16T05:06:38;2.25;;;0.90;;
32593;SDS011;19018;49.046;9.140;2023-01-16T05:09:04;0.88;;;0.60;;
32593;SDS011;19018;49.046;9.140;2023-01-16T05:11:31;0.98;;;0.55;;
32593;SDS011;19018;49.046;9.140;2023-01-16T05:13:57;0.30;;;0.20;;
32593;SDS011;19018;49.046;9.140;2023-01-16T05:16:23;1.00;;;0.73;;
32593;SDS011;19018;49.046;9.140;2023-01-16T05:18:49;0.80;;;0.50;;
32593;SDS011;19018;49.046;9.140;2023-01-16T05:21:15;0.93;;;0.50;;
32593;SDS011;19018;49.046;9.140;2023-01-16T05:23:41;0.47;;;0.25;;
32593;SDS011;19018;49.046;9.140;2023-01-16T05:26:08;2.35;;;1.00;;
32593;SDS011;19018;49.046;9.140;2023-01-16T05:28:34;0.38;;;0.30;;
32593;SDS011;19018;49.046;9.140;2023-01-16T05:31:00;0.60;;;0.60;;
32593;SDS011;19018;49.046;9.140;2023-01-16T05:33:26;1.40;;;0.47;;
32593;SDS011;19018;49.046;9.140;2023-01-16T05:35:54;1.08;;;0.75;;
32593;SDS011;19018;49.046;9.140;2023-01-16T05:38:20;0.75;;;0.65;;
32593;SDS011;19018;49.046;9.140;2023-01-16T05:40:47;0.75;;;0.73;;
32593;SDS011;19018;49.046;9.140;2023-01-16T05:43:13;0.70;;;0.60;;
32593;SDS011;19018;49.046;9.140;2023-01-16T05:45:39;1.45;;;0.50;;
32593;SDS011;19018;49.046;9.140;2023-01-16T05:48:05;0.82;;;0.55;;
32593;SDS011;19018;49.046;9.140;2023-01-16T05:50:31;0.88;;;0.70;;
32593;SDS011;19018;49.046;9.140;2023-01-16T05:52:57;1.10;;;1.00;;
32593;SDS011;19018;49.046;9.140;2023-01-16T05:55:23;1.23;;;0.88;;
32593;SDS011;19018;49.046;9.140;2023-01-16T05:57:49;2.63;;;0.80;;
32593;SDS011;19018;49.046;9.140;2023-01-16T06:00:15;1.27;;;1.08;;
32593;SDS011;19018;49.046;9.140;2023-01-16T06:02:42;2.65;;;0.90;;
32593;SDS011;19018;49.046;9.140;2023-01-16T06:05:08;2.58;;;0.90;;
32593;SDS011;19018;49.046;9.140;2023-01-16T06:07:34;0.82;;;0.45;;
32593;SDS011;19018;49.046;9.140;2023-01-16T06:10:00;0.70;;;0.40;;
32593;SDS011;19018;49.046;9.140;2023-01-16T06:12:26;0.73;;;0.50;;
32593;SDS011;19018;49.046;9.140;2023-01-16T06:14:52;1.02;;;0.57;;
32593;SDS011;19018;49.046;9.140;2023-01-16T06:17:18;0.95;;;0.80;;
32593;SDS011;19018;49.046;9.140;2023-01-16T06:19:45;1.40;;;0.60;;
32593;SDS011;19018;49.046;9.140;2023-01-16T06:22:11;1.92;;;0.80;;
32593;SDS011;19018;49.046;9.140;2023-01-16T06:24:37;1.02;;;0.45;;
32593;SDS011;19018;49.046;9.140;2023-01-16T06:27:03;1.58;;;0.93;;
32593;SDS011;19018;49.046;9.140;2023-01-16T06:29:29;1.13;;;0.90;;
32593;SDS011;19018;49.046;9.140;2023-01-16T06:31:55;1.40;;;0.60;;
32593;SDS011;19018;49.046;9.140;2023-01-16T06:34:22;0.70;;;0.70;;
32593;SDS011;19018;49.046;9.140;2023-01-16T06:36:48;1.45;;;0.70;;
32593;SDS011;19018;49.046;9.140;2023-01-16T06:39:14;2.25;;;0.80;;
32593;SDS011;19018;49.046;9.140;2023-01-16T06:41:41;1.92;;;0.98;;
32593;SDS011;19018;49.046;9.140;2023-01-16T06:44:07;1.02;;;0.90;;
32593;SDS011;19018;49.046;9.140;2023-01-16T06:46:33;0.52;;;0.52;;
32593;SDS011;19018;49.046;9.140;2023-01-16T06:48:59;2.47;;;1.73;;
32593;SDS011;19018;49.046;9.140;2023-01-16T06:51:25;0.47;;;0.47;;
32593;SDS011;19018;49.046;9.140;2023-01-16T06:53:51;0.70;;;0.70;;
32593;SDS011;19018;49.046;9.140;2023-01-16T06:56:17;1.42;;;0.88;;
32593;SDS011;19018;49.046;9.140;2023-01-16T06:58:44;1.13;;;0.80;;
32593;SDS011;19018;49.046;9.140;2023-01-16T07:01:10;1.00;;;0.90;;
32593;SDS011;19018;49.046;9.140;2023-01-16T07:03:37;1.52;;;1.25;;
32593;SDS011;19018;49.046;9.140;2023-01-16T07:06:07;3.28;;;1.00;;
32593;SDS011;19018;49.046;9.140;2023-01-16T07:08:33;1.33;;;1.00;;
32593;SDS011;19018;49.046;9.140;2023-01-16T07:11:00;1.00;;;0.90;;
32593;SDS011;19018;49.046;9.140;2023-01-16T07:13:26;0.70;;;0.70;;
32593;SDS011;19018;49.046;9.140;2023-01-16T07:15:54;1.88;;;1.15;;
32593;SDS011;19018;49.046;9.140;2023-01-16T07:18:49;1.02;;;0.90;;
32593;SDS011;19018;49.046;9.140;2023-01-16T07:21:35;1.23;;;0.60;;
32593;SDS011;19018;49.046;9.140;2023-01-16T07:24:23;1.55;;;0.73;;
32593;SDS011;19018;49.046;9.140;2023-01-16T07:26:52;1.65;;;0.82;;
32593;SDS011;19018;49.046;9.140;2023-01-16T07:29:22;2.22;;;0.70;;
32593;SDS011;19018;49.046;9.140;2023-01-16T07:31:49;0.95;;;0.57;;
32593;SDS011;19018;49.046;9.140;2023-01-16T07:34:15;1.13;;;0.60;;
32593;SDS011;19018;49.046;9.140;2023-01-16T07:36:42;0.30;;;0.30;;
32593;SDS011;19018;49.046;9.140;2023-01-16T07:39:08;1.45;;;0.50;;
32593;SDS011;19018;49.046;9.140;2023-01-16T07:41:34;0.98;;;0.80;;
32593;SDS011;19018;49.046;9.140;2023-01-16T07:44:00;1.55;;;0.82;;
32593;SDS011;19018;49.046;9.140;2023-01-16T07:46:26;0.60;;;0.60;;
32593;SDS011;19018;49.046;9.140;2023-01-16T07:48:52;1.60;;;0.90;;
32593;SDS011;19018;49.046;9.140;2023-01-16T07:51:20;1.13;;;0.50;;
32593;SDS011;19018;49.046;9.140;2023-01-16T07:53:46;0.77;;;0.52;;
32593;SDS011;19018;49.046;9.140;2023-01-16T07:56:12;0.70;;;0.65;;
32593;SDS011;19018;49.046;9.140;2023-01-16T07:58:38;0.80;;;0.60;;
32593;SDS011;19018;49.046;9.140;2023-01-16T08:01:06;1.88;;;0.95;;
32593;SDS011;19018;49.046;9.140;2023-01-16T08:03:32;0.93;;;0.80;;
32593;SDS011;19018;49.046;9.140;2023-01-16T08:05:58;1.27;;;0.75;;
32593;SDS011;19018;49.046;9.140;2023-01-16T08:08:24;1.15;;;0.88;;
32593;SDS011;19018;49.046;9.140;2023-01-16T08:10:58;1.67;;;0.77;;
32593;SDS011;19018;49.046;9.140;2023-01-16T08:13:45;1.63;;;0.90;;
32593;SDS011;19018;49.046;9.140;2023-01-16T08:16:11;1.63;;;0.80;;
32593;SDS011;19018;49.046;9.140;2023-01-16T08:18:37;1.73;;;1.05;;
32593;SDS011;19018;49.046;9.140;2023-01-16T08:21:03;0.77;;;0.70;;
32593;SDS011;19018;49.046;9.140;2023-01-16T08:23:28;2.40;;;0.90;;
32593;SDS011;19018;49.046;9.140;2023-01-16T08:25:54;3.13;;;0.95;;
32593;SDS011;19018;49.046;9.140;2023-01-16T08:28:21;2.40;;;0.90;;
32593;SDS011;19018;49.046;9.140;2023-01-16T08:30:47;1.10;;;0.70;;
32593;SDS011;19018;49.046;9.140;2023-01-16T08:33:13;0.77;;;0.70;;
32593;SDS011;19018;49.046;9.140;2023-01-16T08:35:39;2.35;;;0.85;;
32593;SDS011;19018;49.046;9.140;2023-01-16T08:38:05;1.60;;;0.80;;
32593;SDS011;19018;49.046;9.140;2023-01-16T08:40:31;1.50;;;0.82;;
32593;SDS011;19018;49.046;9.140;2023-01-16T08:42:56;1.73;;;1.20;;
32593;SDS011;19018;49.046;9.140;2023-01-16T08:45:40;3.60;;;0.90;;
32593;SDS011;19018;49.046;9.140;2023-01-16T08:48:25;2.80;;;1.35;;
32593;SDS011;19018;49.046;9.140;2023-01-16T08:51:17;1.70;;;1.55;;
32593;SDS011;19018;49.046;9.140;2023-01-16T08:53:47;1.95;;;1.20;;
32593;SDS011;19018;49.046;9.140;2023-01-16T08:56:13;4.13;;;2.80;;
32593;SDS011;19018;49.046;9.140;2023-01-16T08:58:39;3.40;;;2.25;;
32593;SDS011;19018;49.046;9.140;2023-01-16T09:01:06;4.50;;;2.45;;
32593;SDS011;19018;49.046;9.140;2023-01-16T09:03:32;4.57;;;3.08;;
32593;SDS011;19018;49.046;9.140;2023-01-16T09:05:59;4.68;;;2.55;;
32593;SDS011;19018;49.046;9.140;2023-01-16T09:08:25;3.53;;;1.90;;
32593;SDS011;19018;49.046;9.140;2023-01-16T09:10:51;1.25;;;0.93;;
32593;SDS011;19018;49.046;9.140;2023-01-16T09:13:36;1.75;;;1.40;;
32593;SDS011;19018;49.046;9.140;2023-01-16T09:16:21;1.30;;;0.90;;
32593;SDS011;19018;49.046;9.140;2023-01-16T09:18:48;0.90;;;0.70;;
32593;SDS011;19018;49.046;9.140;2023-01-16T09:21:14;1.20;;;1.10;;
32593;SDS011;19018;49.046;9.140;2023-01-16T09:23:40;1.10;;;1.00;;
32593;SDS011;19018;49.046;9.140;2023-01-16T09:26:07;1.38;;;0.85;;
32593;SDS011;19018;49.046;9.140;2023-01-16T09:28:33;1.52;;;1.05;;
32593;SDS011;19018;49.046;9.140;2023-01-16T09:30:59;0.63;;;0.52;;
32593;SDS011;19018;49.046;9.140;2023-01-16T09:33:25;1.70;;;0.85;;
32593;SDS011;19018;49.046;9.140;2023-01-16T09:35:50;1.20;;;1.10;;
32593;SDS011;19018;49.046;9.140;2023-01-16T09:38:17;1.33;;;1.17;;
32593;SDS011;19018;49.046;9.140;2023-01-16T09:40:47;1.30;;;1.00;;
32593;SDS011;19018;49.046;9.140;2023-01-16T09:43:33;1.75;;;1.10;;
32593;SDS011;19018;49.046;9.140;2023-01-16T09:46:16;1.33;;;0.50;;
32593;SDS011;19018;49.046;9.140;2023-01-16T09:49:08;0.77;;;0.70;;
32593;SDS011;19018;49.046;9.140;2023-01-16T09:51:45;2.30;;;0.90;;
32593;SDS011;19018;49.046;9.140;2023-01-16T09:54:39;0.95;;;0.90;;
32593;SDS011;19018;49.046;9.140;2023-01-16T09:57:30;1.25;;;0.77;;
32593;SDS011;19018;49.046;9.140;2023-01-16T10:00:24;1.90;;;1.10;;
32593;SDS011;19018;49.046;9.140;2023-01-16T10:03:22;1.88;;;0.43;;
32593;SDS011;19018;49.046;9.140;2023-01-16T10:08:30;0.65;;;0.43;;
32593;SDS011;19018;49.046;9.140;2023-01-16T10:14:07;1.30;;;0.50;;
32593;SDS011;19018;49.046;9.140;2023-01-16T10:33:30;0.55;;;0.28;;
32593;SDS011;19018;49.046;9.140;2023-01-16T10:51:43;0.43;;;0.40;;
32593;SDS011;19018;49.046;9.140;2023-01-16T11:00:10;1.38;;;0.88;;
32593;SDS011;19018;49.046;9.140;2023-01-16T11:03:18;0.52;;;0.38;;
32593;SDS011;19018;49.046;9.140;2023-01-16T11:06:41;0.50;;;0.47;;
32593;SDS011;19018;49.046;9.140;2023-01-16T11:09:32;0.80;;;0.28;;
32593;SDS011;19018;49.046;9.140;2023-01-16T11:12:01;0.28;;;0.28;;
32593;SDS011;19018;49.046;9.140;2023-01-16T11:14:50;0.47;;;0.20;;
32593;SDS011;19018;49.046;9.140;2023-01-16T11:23:00;1.58;;;0.35;;
32593;SDS011;19018;49.046;9.140;2023-01-16T11:25:28;0.30;;;0.30;;
32593;SDS011;19018;49.046;9.140;2023-01-16T11:27:55;0.82;;;0.30;;
32593;SDS011;19018;49.046;9.140;2023-01-16T11:30:27;1.40;;;0.40;;
32593;SDS011;19018;49.046;9.140;2023-01-16T11:32:54;0.40;;;0.30;;
32593;SDS011;19018;49.046;9.140;2023-01-16T11:35:32;0.55;;;0.45;;
32593;SDS011;19018;49.046;9.140;2023-01-16T11:38:01;1.27;;;0.25;;
32593;SDS011;19018;49.046;9.140;2023-01-16T11:40:28;0.63;;;0.47;;
32593;SDS011;19018;49.046;9.140;2023-01-16T11:42:56;1.52;;;0.30;;
32593;SDS011;19018;49.046;9.140;2023-01-16T11:45:43;2.15;;;0.82;;
32593;SDS011;19018;49.046;9.140;2023-01-16T11:48:54;0.88;;;0.47;;
32593;SDS011;19018;49.046;9.140;2023-01-16T11:51:27;0.80;;;0.50;;
32593;SDS011;19018;49.046;9.140;2023-01-16T11:53:54;0.25;;;0.20;;
32593;SDS011;19018;49.046;9.140;2023-01-16T11:56:26;0.82;;;0.20;;
32593;SDS011;19018;49.046;9.140;2023-01-16T12:01:42;0.70;;;0.40;;
32593;SDS011;19018;49.046;9.140;2023-01-16T12:04:33;0.38;;;0.35;;
32593;SDS011;19018;49.046;9.140;2023-01-16T12:07:22;0.57;;;0.43;;
32593;SDS011;19018;49.046;9.140;2023-01-16T12:09:52;0.22;;;0.22;;
32593;SDS011;19018;49.046;9.140;2023-01-16T12:12:25;0.25;;;0.25;;
32593;SDS011;19018;49.046;9.140;2023-01-16T12:15:26;0.50;;;0.47;;
32593;SDS011;19018;49.046;9.140;2023-01-16T12:20:59;0.30;;;0.30;;
32593;SDS011;19018;49.046;9.140;2023-01-16T12:26:14;0.93;;;0.20;;
32593;SDS011;19018;49.046;9.140;2023-01-16T12:53:23;1.63;;;0.55;;
32593;SDS011;19018;49.046;9.140;2023-01-16T12:58:51;1.63;;;1.52;;
32593;SDS011;19018;49.046;9.140;2023-01-16T13:01:27;1.42;;;1.10;;
32593;SDS011;19018;49.046;9.140;2023-01-16T13:04:10;1.30;;;0.60;;
32593;SDS011;19018;49.046;9.140;2023-01-16T13:06:57;0.45;;;0.45;;
32593;SDS011;19018;49.046;9.140;2023-01-16T13:12:37;0.00;;;0.00;;
32593;SDS011;19018;49.046;9.140;2023-01-16T13:15:00;0.20;;;0.10;;
32593;SDS011;19018;49.046;9.140;2023-01-16T13:17:32;0.20;;;0.20;;
32593;SDS011;19018;49.046;9.140;2023-01-16T13:20:09;0.30;;;0.10;;
32593;SDS011;19018;49.046;9.140;2023-01-16T13:22:49;0.20;;;0.10;;
32593;SDS011;19018;49.046;9.140;2023-01-16T13:25:35;0.43;;;0.30;;
32593;SDS011;19018;49.046;9.140;2023-01-16T13:30:57;2.08;;;0.45;;
32593;SDS011;19018;49.046;9.140;2023-01-16T13:33:31;0.20;;;0.10;;
32593;SDS011;19018;49.046;9.140;2023-01-16T13:38:52;0.30;;;0.20;;
32593;SDS011;19018;49.046;9.140;2023-01-16T13:41:30;0.22;;;0.20;;
32593;SDS011;19018;49.046;9.140;2023-01-16T13:44:06;0.30;;;0.20;;
32593;SDS011;19018;49.046;9.140;2023-01-16T13:47:04;0.75;;;0.20;;
32593;SDS011;19018;49.046;9.140;2023-01-16T13:49:32;0.05;;;0.05;;
32593;SDS011;19018;49.046;9.140;2023-01-16T13:51:59;0.20;;;0.10;;
32593;SDS011;19018;49.046;9.140;2023-01-16T13:54:40;0.13;;;0.10;;
32593;SDS011;19018;49.046;9.140;2023-01-16T13:57:11;0.40;;;0.20;;
32593;SDS011;19018;49.046;9.140;2023-01-16T14:05:18;0.60;;;0.03;;
32593;SDS011;19018;49.046;9.140;2023-01-16T14:08:25;0.32;;;0.13;;
32593;SDS011;19018;49.046;9.140;2023-01-16T14:17:16;0.10;;;0.10;;
32593;SDS011;19018;49.046;9.140;2023-01-16T14:19:57;0.43;;;0.10;;
32593;SDS011;19018;49.046;9.140;2023-01-16T14:22:26;0.55;;;0.10;;
32593;SDS011;19018;49.046;9.140;2023-01-16T14:24:53;0.43;;;0.20;;
32593;SDS011;19018;49.046;9.140;2023-01-16T14:27:24;0.25;;;0.25;;
32593;SDS011;19018;49.046;9.140;2023-01-16T14:29:59;0.20;;;0.10;;
32593;SDS011;19018;49.046;9.140;2023-01-16T14:32:27;0.32;;;0.10;;
32593;SDS011;19018;49.046;9.140;2023-01-16T14:34:58;0.25;;;0.03;;
32593;SDS011;19018;49.046;9.140;2023-01-16T14:37:39;0.32;;;0.20;;
32593;SDS011;19018;49.046;9.140;2023-01-16T14:42:35;0.10;;;0.00;;
32593;SDS011;19018;49.046;9.140;2023-01-16T14:45:32;0.98;;;0.50;;
32593;SDS011;19018;49.046;9.140;2023-01-16T14:53:55;0.90;;;0.57;;
32593;SDS011;19018;49.046;9.140;2023-01-16T14:56:48;0.25;;;0.13;;
32593;SDS011;19018;49.046;9.140;2023-01-16T14:59:19;0.63;;;0.30;;
32593;SDS011;19018;49.046;9.140;2023-01-16T15:07:30;0.50;;;0.32;;
32593;SDS011;19018;49.046;9.140;2023-01-16T15:10:02;0.10;;;0.10;;
32593;SDS011;19018;49.046;9.140;2023-01-16T15:12:38;0.10;;;0.00;;
32593;SDS011;19018;49.046;9.140;2023-01-16T15:28:58;0.00;;;0.00;;
32593;SDS011;19018;49.046;9.140;2023-01-16T15:32:03;0.25;;;0.20;;
32593;SDS011;19018;49.046;9.140;2023-01-16T15:34:31;0.13;;;0.13;;
32593;SDS011;19018;49.046;9.140;2023-01-16T15:36:58;0.47;;;0.47;;
32593;SDS011;19018;49.046;9.140;2023-01-16T15:42:29;0.10;;;0.00;;
32593;SDS011;19018;49.046;9.140;2023-01-16T15:45:16;0.17;;;0.10;;
32593;SDS011;19018;49.046;9.140;2023-01-16T15:51:26;0.20;;;0.20;;
32593;SDS011;19018;49.046;9.140;2023-01-16T15:53:52;0.10;;;0.10;;
32593;SDS011;19018;49.046;9.140;2023-01-16T15:56:29;0.28;;;0.13;;
32593;SDS011;19018;49.046;9.140;2023-01-16T16:02:21;0.10;;;0.10;;
32593;SDS011;19018;49.046;9.140;2023-01-16T16:04:54;0.90;;;0.30;;
32593;SDS011;19018;49.046;9.140;2023-01-16T16:07:21;0.08;;;0.08;;
32593;SDS011;19018;49.046;9.140;2023-01-16T16:09:48;0.40;;;0.30;;
32593;SDS011;19018;49.046;9.140;2023-01-16T16:12:18;0.13;;;0.00;;
32593;SDS011;19018;49.046;9.140;2023-01-16T16:14:46;0.10;;;0.00;;
32593;SDS011;19018;49.046;9.140;2023-01-16T16:17:32;0.22;;;0.20;;
32593;SDS011;19018;49.046;9.140;2023-01-16T16:20:28;0.80;;;0.30;;
32593;SDS011;19018;49.046;9.140;2023-01-16T16:25:37;0.38;;;0.32;;
32593;SDS011;19018;49.046;9.140;2023-01-16T16:28:37;0.17;;;0.10;;
32593;SDS011;19018;49.046;9.140;2023-01-16T16:31:31;0.55;;;0.30;;
32593;SDS011;19018;49.046;9.140;2023-01-16T16:34:03;2.45;;;1.48;;
32593;SDS011;19018;49.046;9.140;2023-01-16T16:36:42;0.73;;;0.70;;
32593;SDS011;19018;49.046;9.140;2023-01-16T16:39:45;0.70;;;0.63;;
32593;SDS011;19018;49.046;9.140;2023-01-16T16:50:49;0.40;;;0.40;;
32593;SDS011;19018;49.046;9.140;2023-01-16T16:53:25;0.98;;;0.20;;
32593;SDS011;19018;49.046;9.140;2023-01-16T16:56:08;0.32;;;0.20;;
32593;SDS011;19018;49.046;9.140;2023-01-16T16:58:42;0.30;;;0.30;;
32593;SDS011;19018;49.046;9.140;2023-01-16T17:01:29;0.57;;;0.20;;
32593;SDS011;19018;49.046;9.140;2023-01-16T17:03:56;0.10;;;0.10;;
32593;SDS011;19018;49.046;9.140;2023-01-16T17:06:32;0.68;;;0.30;;
32593;SDS011;19018;49.046;9.140;2023-01-16T17:09:15;0.20;;;0.20;;
32593;SDS011;19018;49.046;9.140;2023-01-16T17:12:18;0.30;;;0.30;;
32593;SDS011;19018;49.046;9.140;2023-01-16T17:15:06;0.22;;;0.22;;
32593;SDS011;19018;49.046;9.140;2023-01-16T17:17:33;0.40;;;0.40;;
32593;SDS011;19018;49.046;9.140;2023-01-16T17:20:17;0.43;;;0.30;;
32593;SDS011;19018;49.046;9.140;2023-01-16T17:34:17;0.38;;;0.30;;
32593;SDS011;19018;49.046;9.140;2023-01-16T17:36:45;0.20;;;0.20;;
32593;SDS011;19018;49.046;9.140;2023-01-16T17:39:18;0.47;;;0.38;;
32593;SDS011;19018;49.046;9.140;2023-01-16T17:41:43;0.80;;;0.70;;
32593;SDS011;19018;49.046;9.140;2023-01-16T17:47:02;0.60;;;0.35;;
32593;SDS011;19018;49.046;9.140;2023-01-16T17:49:30;0.40;;;0.40;;
32593;SDS011;19018;49.046;9.140;2023-01-16T17:52:20;0.30;;;0.20;;
32593;SDS011;19018;49.046;9.140;2023-01-16T17:54:47;0.10;;;0.10;;
32593;SDS011;19018;49.046;9.140;2023-01-16T17:57:40;0.32;;;0.20;;
32593;SDS011;19018;49.046;9.140;2023-01-16T18:00:06;0.13;;;0.10;;
32593;SDS011;19018;49.046;9.140;2023-01-16T18:02:39;0.32;;;0.30;;
32593;SDS011;19018;49.046;9.140;2023-01-16T18:05:25;0.30;;;0.30;;
32593;SDS011;19018;49.046;9.140;2023-01-16T18:07:51;0.65;;;0.30;;
32593;SDS011;19018;49.046;9.140;2023-01-16T18:10:20;0.93;;;0.38;;
32593;SDS011;19018;49.046;9.140;2023-01-16T18:12:57;0.40;;;0.20;;
32593;SDS011;19018;49.046;9.140;2023-01-16T18:15:43;0.40;;;0.40;;
32593;SDS011;19018;49.046;9.140;2023-01-16T18:18:28;0.70;;;0.40;;
32593;SDS011;19018;49.046;9.140;2023-01-16T18:20:54;0.47;;;0.38;;
32593;SDS011;19018;49.046;9.140;2023-01-16T18:23:40;0.68;;;0.25;;
32593;SDS011;19018;49.046;9.140;2023-01-16T18:26:12;0.50;;;0.22;;
32593;SDS011;19018;49.046;9.140;2023-01-16T18:28:38;0.30;;;0.25;;
32593;SDS011;19018;49.046;9.140;2023-01-16T18:31:09;0.20;;;0.15;;
32593;SDS011;19018;49.046;9.140;2023-01-16T18:33:51;0.32;;;0.30;;
32593;SDS011;19018;49.046;9.140;2023-01-16T18:36:41;0.45;;;0.43;;
32593;SDS011;19018;49.046;9.140;2023-01-16T18:39:08;0.63;;;0.55;;
32593;SDS011;19018;49.046;9.140;2023-01-16T18:42:13;0.35;;;0.32;;
32593;SDS011;19018;49.046;9.140;2023-01-16T18:45:33;0.50;;;0.30;;
32593;SDS011;19018;49.046;9.140;2023-01-16T18:49:16;0.52;;;0.30;;
32593;SDS011;19018;49.046;9.140;2023-01-16T18:52:56;0.20;;;0.20;;
32593;SDS011;19018;49.046;9.140;2023-01-16T18:56:04;1.00;;;0.45;;
32593;SDS011;19018;49.046;9.140;2023-01-16T18:59:32;0.30;;;0.30;;
32593;SDS011;19018;49.046;9.140;2023-01-16T19:02:56;0.30;;;0.17;;
32593;SDS011;19018;49.046;9.140;2023-01-16T19:06:18;0.20;;;0.20;;